Main page
METAR-TAF:

METAR-TAF

Airports :

RAF Lossiemouth

Lossiemouth, Scotland

latitude: 57-43N, longitude: 003-19W, elevation: 13 m

Current weather observation

The report was made 1 hour and 5 minutes ago, at 04:50 UTC
Wind 3 kt from the West/Southwest
Temperature 12°C
Humidity 94%
Pressure 1017 hPa
Visibility 10 km or more
no clouds below 1500 m and no cumulonimbus

METAR: EGQS 250450Z 25003KT CAVOK 12/11 Q1017 RMK BLU

Time: 06:55 (05:55 UTC)

Forecast

The report was made 1 hour and 30 minutes ago, at 04:25 UTC
Forecast valid from 25 at 06 UTC to 25 at 24 UTC
Wind 5 kt from variable directions
Visibility 10 km or more
no clouds below 1500 m and no cumulonimbus

TAF: EGQS 250425Z 2506/2524 VRB05KT CAVOK

Weather observations and forecasts of more than 4000 airports (METAR and TAF reports).

The available stations are represented by yellow and red dots on the map.

Hover mouse over dot to see the name of the station.

Then click to see weather observations and forecasts.

To change the map : click on the green buttons with a black cross to zoom in, on the green button with a dash to zoom out, or on the green arrows for adjacent maps.


METAR-TAF: